createdAt,value
2022-08-11T00:01:55.952Z,57.40
2022-08-11T00:04:24.473Z,57.40
2022-08-11T00:06:52.105Z,57.50
2022-08-11T00:09:22.047Z,57.60
2022-08-11T00:11:52.827Z,57.80
2022-08-11T00:14:37.272Z,57.80
2022-08-11T00:17:04.615Z,57.70
2022-08-11T00:20:12.648Z,57.90
2022-08-11T00:22:21.455Z,57.90
2022-08-11T00:24:53.341Z,57.90
2022-08-11T00:27:31.796Z,58.10
2022-08-11T00:29:58.524Z,58.10
2022-08-11T00:32:25.279Z,58.30
2022-08-11T00:34:52.177Z,58.30
2022-08-11T00:37:39.203Z,58.40
2022-08-11T00:40:10.195Z,58.40
2022-08-11T00:43:01.937Z,58.50
2022-08-11T00:45:43.927Z,58.50
2022-08-11T00:48:27.773Z,58.30
2022-08-11T00:51:05.680Z,58.30
2022-08-11T00:54:03.380Z,58.30
2022-08-11T00:56:54.923Z,58.40
2022-08-11T00:59:43.688Z,58.50
2022-08-11T01:02:17.916Z,58.50
2022-08-11T01:04:55.801Z,58.70
2022-08-11T01:08:01.542Z,58.70
2022-08-11T01:11:14.096Z,58.80
2022-08-11T01:13:49.624Z,58.80
2022-08-11T01:16:47.345Z,59.00
2022-08-11T01:19:31.675Z,58.80
2022-08-11T01:22:13.496Z,58.80
2022-08-11T01:25:17.542Z,58.70
2022-08-11T01:27:47.105Z,59.00
2022-08-11T01:30:32.204Z,59.10
2022-08-11T01:33:20.748Z,59.30
2022-08-11T01:36:17.896Z,59.30
2022-08-11T01:38:56.713Z,59.20
2022-08-11T01:42:13.746Z,59.20
2022-08-11T01:45:02.137Z,59.30
2022-08-11T01:47:54.419Z,59.30
2022-08-11T01:50:24.232Z,59.30
2022-08-11T01:53:12.607Z,59.20
2022-08-11T01:55:57.340Z,59.20
2022-08-11T01:58:43.671Z,59.30
2022-08-11T02:01:32.821Z,59.30
2022-08-11T02:04:19.837Z,59.40
2022-08-11T02:07:03.625Z,59.50
2022-08-11T02:10:35.311Z,59.50
2022-08-11T02:13:44.660Z,59.40
2022-08-11T02:16:39.776Z,59.60
2022-08-11T02:19:37.012Z,59.60
2022-08-11T02:22:35.907Z,59.80
2022-08-11T02:25:18.808Z,59.50
2022-08-11T02:27:53.452Z,59.60
2022-08-11T02:30:24.292Z,60.10
2022-08-11T02:33:14.692Z,59.80
2022-08-11T02:36:08.562Z,59.80
2022-08-11T02:38:49.134Z,59.80
2022-08-11T02:41:50.372Z,59.70
2022-08-11T02:44:36.698Z,59.80
2022-08-11T02:47:27.777Z,59.90
2022-08-11T02:50:09.878Z,59.80
2022-08-11T02:52:51.912Z,59.80
2022-08-11T02:55:55.774Z,60.10
2022-08-11T02:59:06.288Z,60.00
2022-08-11T03:01:41.437Z,60.00
2022-08-11T03:04:14.749Z,60.10
2022-08-11T03:07:29.112Z,60.00
2022-08-11T03:10:19.948Z,59.90
2022-08-11T03:13:10.505Z,60.20
2022-08-11T03:16:26.368Z,60.20
2022-08-11T03:19:14.200Z,60.00
2022-08-11T03:22:02.474Z,60.00
2022-08-11T03:25:01.555Z,60.00
2022-08-11T03:27:40.102Z,60.10
2022-08-11T03:30:34.263Z,60.20
2022-08-11T03:33:45.455Z,60.30
2022-08-11T03:36:33.322Z,60.50
2022-08-11T03:39:33.463Z,60.50
2022-08-11T03:42:21.867Z,60.50
2022-08-11T03:45:24.016Z,61.30
2022-08-11T03:48:11.408Z,60.60
2022-08-11T03:50:55.856Z,60.70
2022-08-11T03:53:48.499Z,60.70
2022-08-11T03:56:52.053Z,61.10
2022-08-11T03:59:51.223Z,61.10
2022-08-11T04:02:39.426Z,61.10
2022-08-11T04:05:30.164Z,61.20
2022-08-11T04:08:08.825Z,61.00
2022-08-11T04:10:49.006Z,60.70
2022-08-11T04:13:34.480Z,60.60
2022-08-11T04:16:16.713Z,60.60
2022-08-11T04:19:08.829Z,60.50
2022-08-11T04:21:35.580Z,60.70
2022-08-11T04:24:36.588Z,60.80
2022-08-11T04:27:01.869Z,60.30
2022-08-11T04:30:03.416Z,60.20
2022-08-11T04:32:56.489Z,60.40
2022-08-11T04:35:58.002Z,60.40
2022-08-11T04:38:30.950Z,60.50
2022-08-11T04:42:13.868Z,60.80
2022-08-11T04:45:04.710Z,60.80
2022-08-11T04:48:27.399Z,61.80
2022-08-11T04:51:17.780Z,64.10
2022-08-11T04:54:30.138Z,65.90
2022-08-11T04:57:27.223Z,65.60
2022-08-11T05:00:25.363Z,66.40
2022-08-11T05:03:19.388Z,67.10
2022-08-11T05:06:24.762Z,67.70
2022-08-11T05:09:09.997Z,67.70
2022-08-11T05:12:06.346Z,67.40
2022-08-11T05:15:00.150Z,66.80
2022-08-11T05:18:13.607Z,67.40
2022-08-11T05:21:09.868Z,67.00
2022-08-11T05:24:02.457Z,66.60
2022-08-11T05:26:49.139Z,65.90
2022-08-11T05:30:01.889Z,65.40
2022-08-11T05:33:02.037Z,64.70
2022-08-11T05:36:02.162Z,64.20
2022-08-11T05:38:50.951Z,64.30
2022-08-11T05:41:38.520Z,64.10
2022-08-11T05:44:24.086Z,63.20
2022-08-11T05:47:09.587Z,63.20
2022-08-11T05:49:55.095Z,62.60
2022-08-11T05:52:46.831Z,61.90
2022-08-11T05:55:32.946Z,61.40
2022-08-11T05:58:06.383Z,61.30
2022-08-11T06:00:42.844Z,61.30
2022-08-11T06:03:10.933Z,61.20
2022-08-11T06:05:44.115Z,61.30
2022-08-11T06:08:14.369Z,61.10
2022-08-11T06:10:42.524Z,60.80
2022-08-11T06:13:09.305Z,60.40
2022-08-11T06:15:45.073Z,60.20
2022-08-11T06:18:12.396Z,60.00
2022-08-11T06:20:56.426Z,59.70
2022-08-11T06:23:25.186Z,60.40
2022-08-11T06:25:52.622Z,59.70
2022-08-11T06:28:21.364Z,59.30
2022-08-11T06:30:49.018Z,59.40
2022-08-11T06:33:21.882Z,59.20
2022-08-11T06:35:48.869Z,59.50
2022-08-11T06:38:30.765Z,59.40
2022-08-11T06:41:31.699Z,59.30
2022-08-11T06:44:14.419Z,59.30
2022-08-11T06:46:42.771Z,59.50
2022-08-11T06:49:31.417Z,59.50
2022-08-11T06:52:05.213Z,59.40
2022-08-11T06:54:33.967Z,59.00
2022-08-11T06:57:29.747Z,59.00
2022-08-11T07:00:15.653Z,58.90
2022-08-11T07:03:01.062Z,58.90
2022-08-11T07:05:46.394Z,58.80
2022-08-11T07:08:56.317Z,58.50
2022-08-11T07:12:08.505Z,58.20
2022-08-11T07:14:59.950Z,58.40
2022-08-11T07:17:28.113Z,57.30
2022-08-11T07:20:15.293Z,56.40
2022-08-11T07:23:01.070Z,56.90
2022-08-11T07:26:05.992Z,56.80
2022-08-11T07:28:51.109Z,55.90
2022-08-11T07:31:22.078Z,55.50
2022-08-11T07:34:12.167Z,55.90
2022-08-11T07:36:45.497Z,55.70
2022-08-11T07:39:29.042Z,55.60
2022-08-11T07:41:57.288Z,55.00
2022-08-11T07:44:34.265Z,55.00
2022-08-11T07:47:20.169Z,54.80
2022-08-11T07:50:05.305Z,54.60
2022-08-11T07:52:34.559Z,54.50
2022-08-11T07:55:11.845Z,54.10
2022-08-11T07:58:16.612Z,54.40
2022-08-11T08:01:21.476Z,54.00
2022-08-11T08:04:07.631Z,54.10
2022-08-11T08:06:52.920Z,54.10
2022-08-11T08:09:39.680Z,53.60
2022-08-11T08:12:25.256Z,53.70
2022-08-11T08:15:10.913Z,53.40
2022-08-11T08:18:09.549Z,53.30
2022-08-11T08:20:43.287Z,53.40
2022-08-11T08:23:10.144Z,53.40
2022-08-11T08:25:41.118Z,53.20
2022-08-11T08:28:10.508Z,53.00
2022-08-11T08:30:50.751Z,53.20
2022-08-11T08:33:20.257Z,53.50
2022-08-11T08:35:54.435Z,53.00
2022-08-11T08:38:23.086Z,53.10
2022-08-11T08:40:51.211Z,53.00
2022-08-11T08:43:18.358Z,52.90
2022-08-11T08:45:45.172Z,52.90
2022-08-11T08:48:15.156Z,53.10
2022-08-11T08:51:19.511Z,52.50
2022-08-11T08:53:53.547Z,52.50
2022-08-11T08:56:25.067Z,52.20
2022-08-11T08:58:51.845Z,52.00
2022-08-11T09:01:18.665Z,52.10
2022-08-11T09:04:06.579Z,52.20
2022-08-11T09:06:32.241Z,52.10
2022-08-11T09:08:59.964Z,51.40
2022-08-11T09:11:45.014Z,51.20
2022-08-11T09:14:15.099Z,50.80
2022-08-11T09:16:42.010Z,51.00
2022-08-11T09:19:09.575Z,50.70
2022-08-11T09:21:49.113Z,51.20
2022-08-11T09:24:36.706Z,50.60
2022-08-11T09:27:08.647Z,50.70
2022-08-11T09:29:35.575Z,50.60
2022-08-11T09:32:02.333Z,50.60
2022-08-11T09:34:29.131Z,50.70
2022-08-11T09:37:28.282Z,50.10
2022-08-11T09:40:19.476Z,50.10
2022-08-11T09:43:04.701Z,50.80
2022-08-11T09:45:39.901Z,49.60
2022-08-11T09:48:07.371Z,49.70
2022-08-11T09:50:34.705Z,49.30
2022-08-11T09:53:35.835Z,48.60
2022-08-11T09:55:52.860Z,48.60
2022-08-11T09:58:33.937Z,48.60
2022-08-11T10:01:07.970Z,48.50
2022-08-11T10:03:38.328Z,48.20
2022-08-11T10:06:33.196Z,48.40
2022-08-11T10:09:03.111Z,48.20
2022-08-11T10:11:29.829Z,47.60
2022-08-11T10:14:34.063Z,47.50
2022-08-11T10:17:04.415Z,47.40
2022-08-11T10:19:31.664Z,47.00
2022-08-11T10:22:16.739Z,46.70
2022-08-11T10:25:01.961Z,46.70
2022-08-11T10:28:09.079Z,46.50
2022-08-11T10:30:33.950Z,45.90
2022-08-11T10:33:37.056Z,46.20
2022-08-11T10:36:16.273Z,46.30
2022-08-11T10:38:45.856Z,45.70
2022-08-11T10:41:31.951Z,46.00
2022-08-11T10:44:03.668Z,45.70
2022-08-11T10:46:49.684Z,45.40
2022-08-11T10:49:16.477Z,45.60
2022-08-11T10:52:01.583Z,45.10
2022-08-11T10:54:46.785Z,45.40
2022-08-11T10:57:33.615Z,44.80
2022-08-11T11:00:00.480Z,45.50
2022-08-11T11:02:30.035Z,45.00
2022-08-11T11:05:09.191Z,44.80
2022-08-11T11:07:44.348Z,45.00
2022-08-11T11:10:11.416Z,44.60
2022-08-11T11:12:59.077Z,44.60
2022-08-11T11:15:46.220Z,44.90
2022-08-11T11:18:18.231Z,45.10
2022-08-11T11:21:15.391Z,44.30
2022-08-11T11:24:11.932Z,44.30
2022-08-11T11:26:43.986Z,43.70
2022-08-11T11:29:27.931Z,43.30
2022-08-11T11:32:06.663Z,43.20
2022-08-11T11:34:47.936Z,44.00
2022-08-11T11:37:20.135Z,43.90
2022-08-11T11:39:46.948Z,43.60
2022-08-11T11:42:13.720Z,43.70
2022-08-11T11:44:42.059Z,43.60
2022-08-11T11:47:08.853Z,43.60
2022-08-11T11:49:39.432Z,43.50
2022-08-11T11:52:07.061Z,42.40
2022-08-11T11:54:34.030Z,42.20
2022-08-11T11:57:20.762Z,42.30
2022-08-11T12:00:07.842Z,42.00
2022-08-11T12:02:35.458Z,41.60
2022-08-11T12:05:02.352Z,41.70
2022-08-11T12:07:56.897Z,41.80
2022-08-11T12:10:35.401Z,41.20
2022-08-11T12:13:20.465Z,40.90
2022-08-11T12:16:32.299Z,41.00
2022-08-11T12:18:34.692Z,41.70
2022-08-11T12:21:01.801Z,41.00
2022-08-11T12:23:46.787Z,40.80
2022-08-11T12:26:34.916Z,40.60
2022-08-11T12:29:01.744Z,40.60
2022-08-11T12:31:32.364Z,41.20
2022-08-11T12:34:03.526Z,41.60
2022-08-11T12:36:33.615Z,42.20
2022-08-11T12:39:00.377Z,42.40
2022-08-11T12:41:57.002Z,42.80
2022-08-11T12:44:45.890Z,43.00
2022-08-11T12:47:15.501Z,43.30
2022-08-11T12:50:06.262Z,43.30
2022-08-11T12:52:50.529Z,43.40
2022-08-11T12:55:37.688Z,43.90
2022-08-11T12:58:17.144Z,43.70
2022-08-11T13:01:05.811Z,42.20
2022-08-11T13:03:57.681Z,42.90
2022-08-11T13:06:24.740Z,43.10
2022-08-11T13:08:51.541Z,43.30
2022-08-11T13:11:56.019Z,42.70
2022-08-11T13:14:23.466Z,41.40
2022-08-11T13:17:08.565Z,42.10
2022-08-11T13:19:35.681Z,42.20
2022-08-11T13:22:02.513Z,41.20
2022-08-11T13:24:29.266Z,41.70
2022-08-11T13:26:55.996Z,41.20
2022-08-11T13:29:24.783Z,39.00
2022-08-11T13:31:56.661Z,38.50
2022-08-11T13:34:24.193Z,38.50
2022-08-11T13:36:52.958Z,37.90
2022-08-11T13:39:24.523Z,37.80
2022-08-11T13:41:51.968Z,37.60
2022-08-11T13:44:24.818Z,37.20
2022-08-11T13:46:53.364Z,37.80
2022-08-11T13:49:20.315Z,38.00
2022-08-11T13:51:47.131Z,38.10
2022-08-11T13:54:21.565Z,37.20
2022-08-11T13:56:49.763Z,37.50
2022-08-11T13:59:23.959Z,38.00
2022-08-11T14:02:20.055Z,38.60
2022-08-11T14:05:00.564Z,39.00
2022-08-11T14:07:34.525Z,39.00
2022-08-11T14:10:01.418Z,38.90
2022-08-11T14:12:48.547Z,39.10
2022-08-11T14:15:21.152Z,38.80
2022-08-11T14:17:51.566Z,39.20
2022-08-11T14:20:38.430Z,39.10
2022-08-11T14:23:05.842Z,39.30
2022-08-11T14:26:00.364Z,39.70
2022-08-11T14:28:30.470Z,39.60
2022-08-11T14:31:01.770Z,39.50
2022-08-11T14:33:57.949Z,39.10
2022-08-11T14:36:15.756Z,39.10
2022-08-11T14:38:42.494Z,39.00
2022-08-11T14:41:27.683Z,39.10
2022-08-11T14:44:14.846Z,38.70
2022-08-11T14:47:01.104Z,38.80
2022-08-11T14:49:28.400Z,38.80
2022-08-11T14:51:57.096Z,38.60
2022-08-11T14:54:43.807Z,39.10
2022-08-11T14:57:10.569Z,39.00
2022-08-11T14:59:37.842Z,39.50
2022-08-11T15:02:23.441Z,39.60
2022-08-11T15:04:51.086Z,39.70
2022-08-11T15:07:17.871Z,40.00
2022-08-11T15:10:02.704Z,40.00
2022-08-11T15:12:33.128Z,40.00
2022-08-11T15:15:19.706Z,39.80
2022-08-11T15:17:48.013Z,40.00
2022-08-11T15:20:36.037Z,40.10
2022-08-11T15:23:21.783Z,40.40
2022-08-11T15:25:51.177Z,40.90
2022-08-11T15:28:36.318Z,40.00
2022-08-11T15:31:41.801Z,40.20
2022-08-11T15:34:36.419Z,40.40
2022-08-11T15:37:26.600Z,40.60
2022-08-11T15:40:36.412Z,40.80
2022-08-11T15:43:45.477Z,40.50
2022-08-11T15:46:17.862Z,40.70
2022-08-11T15:48:48.527Z,40.90
2022-08-11T15:51:29.363Z,41.10
2022-08-11T15:53:58.494Z,41.10
2022-08-11T15:56:26.507Z,41.10
2022-08-11T15:59:42.315Z,41.30
2022-08-11T16:02:30.946Z,41.30
2022-08-11T16:04:58.553Z,41.50
2022-08-11T16:07:27.395Z,41.70
2022-08-11T16:10:00.529Z,41.90
2022-08-11T16:12:31.998Z,42.00
2022-08-11T16:15:23.172Z,42.00
2022-08-11T16:17:57.932Z,42.20
2022-08-11T16:20:26.052Z,42.20
2022-08-11T16:23:00.491Z,42.20
2022-08-11T16:27:09.539Z,42.40
2022-08-11T16:28:16.898Z,42.60
2022-08-11T16:30:44.275Z,42.60
2022-08-11T16:33:48.547Z,42.70
2022-08-11T16:36:16.174Z,42.70
2022-08-11T16:38:43.045Z,42.90
2022-08-11T16:41:11.943Z,43.00
2022-08-11T16:43:59.668Z,43.10
2022-08-11T16:46:44.941Z,43.10
2022-08-11T16:49:21.068Z,43.30
2022-08-11T16:51:47.770Z,43.30
2022-08-11T16:54:14.497Z,43.40
2022-08-11T16:56:51.882Z,43.50
2022-08-11T16:59:20.556Z,43.50
2022-08-11T17:02:10.607Z,43.50
2022-08-11T17:05:16.053Z,43.60
2022-08-11T17:08:02.249Z,43.50
2022-08-11T17:11:03.156Z,43.70
2022-08-11T17:13:52.584Z,43.80
2022-08-11T17:16:24.206Z,44.00
2022-08-11T17:19:01.181Z,43.90
2022-08-11T17:21:30.206Z,43.90
2022-08-11T17:24:09.636Z,43.70
2022-08-11T17:26:59.101Z,43.80
2022-08-11T17:29:53.681Z,43.90
2022-08-11T17:32:56.206Z,44.10
2022-08-11T17:35:33.258Z,44.10
2022-08-11T17:38:19.716Z,43.80
2022-08-11T17:41:07.286Z,43.80
2022-08-11T17:43:52.524Z,43.90
2022-08-11T17:46:38.127Z,44.10
2022-08-11T17:49:07.691Z,44.10
2022-08-11T17:51:53.498Z,44.10
2022-08-11T17:54:40.064Z,44.20
2022-08-11T17:57:27.045Z,44.20
2022-08-11T17:59:54.149Z,44.30
2022-08-11T18:02:48.746Z,44.20
2022-08-11T18:05:18.198Z,44.30
2022-08-11T18:08:03.358Z,44.40
2022-08-11T18:10:50.132Z,44.30
2022-08-11T18:13:36.301Z,44.20
2022-08-11T18:16:21.860Z,44.90
2022-08-11T18:19:06.826Z,45.50
2022-08-11T18:22:08.234Z,45.60
2022-08-11T18:24:58.560Z,45.80
2022-08-11T18:27:45.853Z,46.10
2022-08-11T18:30:31.759Z,46.10
2022-08-11T18:33:44.966Z,46.30
2022-08-11T18:36:25.121Z,46.30
2022-08-11T18:39:10.206Z,46.70
2022-08-11T18:41:56.421Z,46.90
2022-08-11T18:44:44.673Z,47.10
2022-08-11T18:47:30.838Z,47.30
2022-08-11T18:50:32.532Z,47.60
2022-08-11T18:53:23.885Z,47.40
2022-08-11T18:56:08.981Z,47.70
2022-08-11T18:58:54.122Z,48.10
2022-08-11T19:01:43.023Z,48.20
2022-08-11T19:04:30.735Z,48.40
2022-08-11T19:07:20.155Z,48.60
2022-08-11T19:10:05.729Z,48.70
2022-08-11T19:12:58.799Z,48.80
2022-08-11T19:15:44.432Z,49.00
2022-08-11T19:18:32.497Z,49.30
2022-08-11T19:21:17.561Z,49.40
2022-08-11T19:24:03.757Z,49.50
2022-08-11T19:26:50.367Z,49.60
2022-08-11T19:30:07.246Z,49.70
2022-08-11T19:32:43.954Z,49.90
2022-08-11T19:35:29.131Z,50.10
2022-08-11T19:38:14.160Z,50.10
2022-08-11T19:40:59.123Z,50.20
2022-08-11T19:43:45.259Z,50.50
2022-08-11T19:46:30.414Z,50.50
2022-08-11T19:49:16.147Z,50.50
2022-08-11T19:52:02.257Z,50.80
2022-08-11T19:54:49.741Z,50.80
2022-08-11T19:57:39.655Z,50.80
2022-08-11T20:00:36.370Z,50.90
2022-08-11T20:03:24.739Z,50.90
2022-08-11T20:06:10.338Z,51.10
2022-08-11T20:08:58.657Z,51.30
2022-08-11T20:11:45.034Z,51.30
2022-08-11T20:14:30.010Z,51.50
2022-08-11T20:17:16.001Z,51.80
2022-08-11T20:22:51.430Z,52.00
2022-08-11T20:25:36.734Z,52.20
2022-08-11T20:28:22.956Z,52.20
2022-08-11T20:31:07.889Z,52.20
2022-08-11T20:33:53.125Z,52.50
2022-08-11T20:36:38.288Z,52.60
2022-08-11T20:39:23.471Z,52.70
2022-08-11T20:42:08.718Z,52.70
2022-08-11T20:44:55.304Z,52.40
2022-08-11T20:47:59.340Z,52.30
2022-08-11T20:50:46.077Z,52.20
2022-08-11T20:53:35.818Z,52.10
2022-08-11T20:56:28.474Z,52.20
2022-08-11T20:59:18.693Z,52.30
2022-08-11T21:02:05.490Z,53.00
2022-08-11T21:04:56.182Z,52.60
2022-08-11T21:07:42.079Z,52.50
2022-08-11T21:10:28.011Z,52.60
2022-08-11T21:13:26.384Z,52.70
2022-08-11T21:16:23.351Z,53.00
2022-08-11T21:19:12.557Z,53.10
2022-08-11T21:21:57.717Z,53.10
2022-08-11T21:24:47.070Z,52.80
2022-08-11T21:27:34.297Z,52.70
2022-08-11T21:30:20.134Z,52.90
2022-08-11T21:33:05.184Z,53.30
2022-08-11T21:35:50.672Z,53.60
2022-08-11T21:38:35.596Z,53.80
2022-08-11T21:41:20.815Z,54.00
2022-08-11T21:44:06.391Z,54.40
2022-08-11T21:46:57.162Z,54.60
2022-08-11T21:49:42.178Z,54.70
2022-08-11T21:52:27.361Z,54.70
2022-08-11T21:55:13.199Z,55.00
2022-08-11T21:57:58.907Z,55.20
2022-08-11T22:00:43.902Z,55.50
2022-08-11T22:03:29.121Z,55.10
2022-08-11T22:06:17.384Z,55.10
2022-08-11T22:09:02.626Z,55.30
2022-08-11T22:11:48.080Z,55.20
2022-08-11T22:14:53.181Z,55.30
2022-08-11T22:17:38.336Z,55.30
2022-08-11T22:20:25.586Z,55.20
2022-08-11T22:23:11.855Z,55.20
2022-08-11T22:26:03.840Z,55.00
2022-08-11T22:28:52.303Z,55.10
2022-08-11T22:31:37.473Z,55.20
2022-08-11T22:34:22.756Z,55.30
2022-08-11T22:37:07.745Z,55.20
2022-08-11T22:40:02.549Z,55.20
2022-08-11T22:42:49.970Z,55.10
2022-08-11T22:45:35.591Z,55.20
2022-08-11T22:48:22.703Z,55.20
2022-08-11T22:51:07.750Z,55.60
2022-08-11T22:53:57.557Z,56.50
2022-08-11T22:56:45.234Z,56.30
2022-08-11T22:59:30.441Z,56.50
2022-08-11T23:02:15.536Z,56.40
2022-08-11T23:05:00.584Z,56.30
2022-08-11T23:07:49.894Z,56.10
2022-08-11T23:10:37.242Z,56.00
2022-08-11T23:13:22.549Z,55.80
2022-08-11T23:16:08.312Z,56.40
2022-08-11T23:18:53.457Z,55.80
2022-08-11T23:21:39.496Z,55.70
2022-08-11T23:24:25.607Z,55.60
2022-08-11T23:27:10.750Z,55.60
2022-08-11T23:29:55.845Z,55.30
2022-08-11T23:32:41.107Z,55.10
2022-08-11T23:35:39.034Z,54.90
2022-08-11T23:38:25.942Z,54.60
2022-08-11T23:41:10.882Z,54.50
2022-08-11T23:43:56.117Z,54.50
2022-08-11T23:46:42.354Z,54.50
2022-08-11T23:49:27.602Z,54.30
2022-08-11T23:52:13.277Z,54.30
2022-08-11T23:54:58.446Z,54.20
2022-08-11T23:57:48.684Z,54.20
